Charleston Heights, South Carolina
Current Conditions -  °F | °C
As of 6:56 AM on Friday 19 Dec 2014 (Local Time) from KCHS Reporting Station
Light Fog Light Fog  
Wind Chill: 42°   Ceiling: Unl
Heat Index: 42°   Visibility: 7mi
Dew Point: 40°   Wind: 0mph
Humidity: 92%   Direction: NA
Pressure: 30.11"   Gusts: NA
Location:  32.8713°N, 80.0388°W
Report Text: KCHS 191156Z 00000KT 7SM MIFG SCT140 06/04 A3011 RMK AO2 SLP196 T00560044 10083 20044 53012
Loading
Personal Weather Stations






























Interactive Weather Map New forecast layout! Learn more

10-Day Weather Forecast

Advertisements
Track Severe Weather on mobile